Latest Weather Observations for Trepell

IDQ60801

Issued at 11:52 pm EST Wednesday 27 January 2021 (issued every 10 minutes, with the page automatically refreshed every 10 minutes)

About weather observations | Map of weather stations | Latest weather observations for QLD | Other Formats
Station Details ID: 037036 Name: TREPELL AIRPORT Lat: -21.84 Lon: 140.89 Height: 266.2 m
Data from the previous 72 hours. | See also: Recent months at Trepell
Date/Time
EST
Temp
°C
App
Temp
°C
Dew
Point
°C
Rel
Hum
%
Delta-T
°C
Wind Press
QNH
hPa
Press
MSL
hPa
Rain since
9am
mm
Dir  Spd
km/h
Gust
km/h
Spd
kts
Gust
kts
27/11:30pm 31.1 33.1 18.8 48 8.1 NNW 6 9 3 5 1004.4 1002.2 0.0
27/11:00pm 31.5 32.8 18.5 46 8.5 WNW 9 13 5 7 1004.3 1002.1 0.0
27/10:30pm 31.8 35.1 19.1 47 8.4 CALM 0 0 0 0 1004.0 1001.9 0.0
27/10:00pm 32.2 34.2 18.8 45 8.8 NNW 6 7 3 4 1003.7 1001.6 0.0
27/09:30pm 32.4 33.8 18.6 44 9.1 NNW 9 11 5 6 1003.5 1001.4 0.0
27/09:00pm 33.1 33.7 18.5 42 9.6 NNW 13 17 7 9 1003.3 1001.2 0.0
27/08:30pm 33.0 32.4 18.4 42 9.6 NNW 19 24 10 13 1002.8 1000.7 0.0
27/08:00pm 36.0 34.3 15.7 30 13.0 NE 19 24 10 13 1002.7 1000.6 0.0
27/07:30pm 35.2 34.2 16.5 33 12.0 N 17 28 9 15 1002.2 1000.0 0.0
27/07:00pm 36.7 32.3 15.2 27 13.7 ENE 32 46 17 25 1001.8 999.6 0.0
27/06:53pm 37.8 35.2 15.0 26 14.5 E 22 39 12 21 1001.6 999.4 0.0
27/06:30pm 38.8 37.3 13.2 21 15.9 ESE 13 20 7 11 1001.4 999.2 0.0
27/06:00pm 39.4 36.7 13.0 21 16.5 E 19 28 10 15 1001.2 999.0 0.0
27/05:30pm 39.2 38.6 13.6 22 16.0 ENE 9 19 5 10 1000.8 998.6 0.0
27/05:00pm 38.5 38.2 14.3 23 15.3 SE 9 20 5 11 1001.0 998.8 0.0
27/04:30pm 39.4 38.3 14.4 22 15.8 ESE 13 19 7 10 1001.1 998.9 0.0
27/04:00pm 38.7 36.5 14.5 24 15.4 NE 19 26 10 14 1001.6 999.4 0.0
27/03:30pm 39.1 37.4 14.8 23 15.4 ENE 17 26 9 14 1002.0 999.8 0.0
27/03:00pm 39.6 38.0 15.9 25 15.4 ENE 19 35 10 19 1002.4 1000.2 0.0
27/02:30pm 38.3 36.2 14.8 25 14.9 SE 19 28 10 15 1002.6 1000.5 0.0
27/02:00pm 38.2 37.7 15.9 26 14.4 SSE 13 24 7 13 1003.0 1000.9 0.0
27/01:30pm 37.4 37.2 15.8 27 13.8 SSE 11 24 6 13 1003.6 1001.5 0.0
27/01:00pm 38.0 38.0 16.3 27 14.1 SSW 11 20 6 11 1004.2 1002.0 0.0
27/12:30pm 37.0 37.0 17.1 31 13.0 SSW 13 19 7 10 1004.7 1002.5 0.0
27/12:00pm 36.1 36.7 16.8 32 12.5 NE 9 15 5 8 1005.1 1002.9 0.0
27/11:30am 35.7 36.5 17.4 33 11.9 W 9 17 5 9 1005.4 1003.2 0.0
27/11:00am 34.4 35.2 17.2 36 11.2 NNW 9 15 5 8 1005.8 1003.6 0.0
27/10:30am 33.8 35.3 17.5 38 10.6 SSE 6 9 3 5 1006.0 1003.8 0.0
27/10:00am 33.2 34.8 17.8 40 10.0 W 6 15 3 8 1006.3 1004.2 0.0
27/09:30am 32.1 34.0 19.0 45 8.6 WNW 7 13 4 7 1006.2 1004.1 0.0
27/09:00am 31.0 32.8 18.7 48 8.1 WNW 7 13 4 7 1006.3 1004.2 1.4
27/08:30am 29.6 32.9 19.9 56 6.4 NW 2 9 1 5 1006.2 1004.1 1.4
27/08:00am 28.5 32.2 20.0 60 5.6 CALM 0 0 0 0 1006.1 1004.0 1.4
27/07:30am 28.4 31.3 19.9 60 5.6 S 4 9 2 5 1005.9 1003.7 1.4
27/07:00am 27.0 30.5 20.3 66 4.4 NW 2 6 1 3 1005.5 1003.3 1.4
27/06:30am 26.2 28.4 20.5 71 3.8 SW 9 19 5 10 1005.2 1003.0 1.4
27/06:00am 26.3 27.0 20.4 70 3.9 N 17 22 9 12 1004.3 1002.1 1.4
27/05:30am 26.7 27.0 20.3 68 4.2 N 19 30 10 16 1004.0 1001.9 1.4
27/05:00am 27.3 27.4 19.9 64 4.9 NNE 19 24 10 13 1003.5 1001.4 1.4
27/04:30am 25.8 26.8 19.4 67 4.2 NE 13 17 7 9 1003.1 1001.0 1.4
27/04:00am 25.6 29.9 21.1 76 3.0 CALM 0 0 0 0 1002.4 1000.2 1.4
27/03:30am 25.9 30.0 20.7 73 3.4 CALM 0 0 0 0 1002.4 1000.2 1.4
27/03:00am 26.1 30.3 20.9 73 3.5 CALM 0 0 0 0 1002.3 1000.1 1.4
27/02:30am 26.3 29.0 20.6 71 3.8 SW 7 7 4 4 1002.1 999.9 1.4
27/02:00am 27.2 29.9 20.3 66 4.6 WNW 6 7 3 4 1002.3 1000.1 1.4
27/01:30am 26.7 29.0 19.8 66 4.5 N 7 7 4 4 1002.6 1000.5 1.4
27/01:00am 27.2 30.9 20.0 64 4.8 CALM 0 0 0 0 1002.8 1000.7 1.4
27/12:30am 26.8 30.4 19.7 65 4.7 CALM 0 0 0 0 1003.1 1001.0 1.4
27/12:00am 26.8 29.0 19.7 65 4.7 NNW 7 9 4 5 1003.4 1001.3 1.4
 
Date/Time
EST
Temp
°C
App
Temp
°C
Dew
Point
°C
Rel
Hum
%
Delta-T
°C
Wind Press
QNH
hPa
Press
MSL
hPa
Rain since
9am
mm
Dir  Spd
km/h
Gust
km/h
Spd
kts
Gust
kts
26/11:30pm 27.5 29.9 20.1 64 4.9 NW 7 11 4 6 1003.7 1001.6 1.4
26/11:00pm 27.9 29.5 19.9 61 5.3 W 11 15 6 8 1003.5 1001.4 1.4
26/10:30pm 28.2 28.7 20.0 61 5.4 W 17 20 9 11 1003.5 1001.4 1.4
26/10:00pm 28.6 28.9 19.5 58 6.0 W 17 20 9 11 1003.8 1001.7 1.4
26/09:30pm 28.8 29.5 20.5 61 5.5 W 17 20 9 11 1003.9 1001.8 1.4
26/09:00pm 28.8 30.4 20.8 62 5.4 W 13 17 7 9 1003.8 1001.7 1.4
26/08:30pm 29.3 30.8 20.5 59 5.9 NNW 13 17 7 9 1003.7 1001.6 1.4
26/08:00pm 29.0 29.3 19.6 57 6.2 N 17 22 9 12 1003.1 1001.0 1.4
26/07:30pm 29.2 28.9 19.2 54 6.6 N 19 26 10 14 1002.8 1000.7 1.4
26/07:00pm 29.1 27.6 19.4 55 6.4 N 26 35 14 19 1002.6 1000.5 1.4
26/06:30pm 29.4 27.4 19.1 54 6.7 N 28 41 15 22 1002.5 1000.3 1.4
26/06:00pm 31.9 31.3 18.5 45 8.8 N 19 24 10 13 1001.6 999.4 1.4
26/05:30pm 32.0 32.6 18.6 45 8.8 N 13 19 7 10 1001.3 999.1 1.4
26/05:00pm 31.7 32.3 18.7 46 8.6 N 13 17 7 9 1001.0 998.8 1.4
26/04:30pm 31.4 30.4 18.0 44 8.7 W 20 30 11 16 1001.2 999.0 1.4
26/04:00pm 34.4 34.0 16.3 34 11.6 WNW 13 22 7 12 1001.1 998.9 1.4
26/03:35pm 34.1 33.4 18.2 39 10.4 W 19 37 10 20 1001.0 998.8 1.2
26/03:30pm 35.5 36.7 19.0 37 11.0 WSW 11 17 6 9 1001.0 998.8 1.2
26/03:00pm 34.6 36.9 19.8 41 10.0 NNE 7 11 4 6 1001.1 998.9 1.2
26/02:30pm 32.5 32.8 19.7 46 8.5 WNW 17 26 9 14 1001.5 999.3 1.2
26/02:11pm 33.9 32.9 16.7 35 11.0 SSW 17 48 9 26 1001.7 999.5 0.0
26/02:00pm 37.8 36.7 14.4 25 14.8 W 13 33 7 18 1001.6 999.4 0.0
26/01:30pm 38.4 38.0 14.2 23 15.2 NE 9 17 5 9 1002.1 999.9 0.0
26/01:00pm 37.6 37.2 14.2 25 14.7 SSE 9 17 5 9 1002.6 1000.5 0.0
26/12:30pm 37.9 36.5 14.5 25 14.8 W 15 24 8 13 1003.2 1001.1 0.0
26/12:00pm 36.8 35.7 15.3 28 13.7 W 15 20 8 11 1003.7 1001.6 0.0
26/11:30am 36.8 36.6 15.8 28 13.4 NW 11 33 6 18 1004.0 1001.9 0.0
26/11:00am 36.1 35.0 16.3 31 12.8 N 17 26 9 14 1004.6 1002.4 0.0
26/10:30am 36.2 35.9 17.4 33 12.3 NW 15 28 8 15 1004.8 1002.6 0.0
26/10:00am 34.6 34.1 16.9 35 11.4 NNW 15 30 8 16 1005.2 1003.0 0.0
26/09:30am 33.8 33.4 17.1 37 10.8 NNW 15 24 8 13 1005.4 1003.2 0.0
26/09:00am 32.9 32.3 16.7 38 10.4 N 15 20 8 11 1005.5 1003.3 0.0
26/08:30am 32.1 31.0 17.2 41 9.6 NNE 19 22 10 12 1005.5 1003.3 0.0
26/08:00am 30.6 29.9 17.3 45 8.5 N 17 22 9 12 1005.4 1003.2 0.0
26/07:30am 30.2 30.0 17.6 46 8.1 NNE 15 22 8 12 1005.1 1002.9 0.0
26/07:00am 29.4 30.1 17.9 50 7.4 N 11 15 6 8 1004.7 1002.5 0.0
26/06:30am 28.8 29.9 18.0 52 6.9 N 9 11 5 6 1004.5 1002.3 0.0
26/06:00am 28.5 29.2 18.0 53 6.8 NNE 11 13 6 7 1003.9 1001.8 0.0
26/05:30am 28.5 29.6 18.0 53 6.7 NNE 9 11 5 6 1003.5 1001.4 0.0
26/05:00am 28.5 28.8 18.0 53 6.8 NNE 13 15 7 8 1003.1 1001.0 0.0
26/04:30am 28.4 29.5 17.9 53 6.7 NE 9 13 5 7 1003.3 1001.2 0.0
26/04:00am 28.6 29.7 18.1 53 6.8 ENE 9 13 5 7 1003.2 1001.1 0.0
26/03:30am 29.1 29.0 17.0 48 7.7 ENE 13 17 7 9 1003.0 1000.9 0.0
26/03:00am 29.4 30.0 16.9 47 8.0 NNE 9 13 5 7 1002.8 1000.7 0.0
26/02:30am 30.4 30.6 16.8 44 8.6 NW 11 15 6 8 1002.9 1000.8 0.0
26/02:00am 30.3 32.2 16.7 44 8.7 NNW 2 7 1 4 1003.2 1001.1 0.0
26/01:30am 31.0 30.8 16.6 42 9.1 NNW 13 19 7 10 1003.6 1001.5 0.0
26/01:00am 31.6 30.4 16.0 39 9.9 NNW 17 24 9 13 1004.0 1001.9 0.0
26/12:30am 31.3 31.5 15.7 39 9.8 NNW 9 15 5 8 1004.5 1002.3 0.0
26/12:00am 31.3 30.8 16.9 42 9.2 N 15 20 8 11 1004.7 1002.5 0.0
 
Date/Time
EST
Temp
°C
App
Temp
°C
Dew
Point
°C
Rel
Hum
%
Delta-T
°C
Wind Press
QNH
hPa
Press
MSL
hPa
Rain since
9am
mm
Dir  Spd
km/h
Gust
km/h
Spd
kts
Gust
kts
25/11:30pm 30.6 27.4 16.2 41 9.1 E 28 35 15 19 1005.1 1002.9 0.0
25/11:00pm 32.9 30.2 14.5 33 11.4 SE 22 33 12 18 1005.1 1002.9 0.0
25/10:30pm 33.6 30.6 13.6 29 12.3 NE 22 32 12 17 1004.8 1002.6 0.0
25/10:00pm 32.9 27.9 14.0 32 11.7 NE 33 43 18 23 1004.2 1002.0 0.0
25/09:57pm 32.7 28.0 14.3 32 11.4 NE 32 43 17 23 1004.2 1002.0 0.0
25/09:30pm 32.6 26.7 14.7 34 11.1 ENE 39 50 21 27 1003.7 1001.6 0.0
25/09:04pm 32.4 26.6 15.0 35 10.8 E 39 54 21 29 1003.4 1001.3 0.0
25/09:00pm 32.5 26.6 14.6 34 11.1 E 39 59 21 32 1003.4 1001.3 0.0
25/08:52pm 35.0 31.1 14.3 29 12.9 E 28 48 15 26 1003.1 1001.0 0.0
25/08:30pm 34.5 29.7 13.9 29 12.7 SE 32 41 17 22 1002.8 1000.7 0.0
25/08:23pm 35.4 32.7 13.0 26 13.7 SSE 19 41 10 22 1002.7 1000.6 0.0
25/08:00pm 36.6 34.0 10.7 21 15.5 SSE 15 20 8 11 1002.5 1000.3 0.0
25/07:30pm 37.3 34.9 11.3 21 15.6 S 15 20 8 11 1002.0 999.8 0.0
25/07:00pm 38.2 35.3 9.7 18 16.9 SSW 15 22 8 12 1001.7 999.5 0.0
25/06:30pm 39.2 38.3 10.5 18 17.2 WSW 6 20 3 11 1001.5 999.3 0.0
25/06:00pm 40.2 37.7 9.6 16 18.2 SSW 13 22 7 12 1001.3 999.1 0.0
25/05:30pm 40.1 39.1 10.4 17 17.8 NW 6 20 3 11 1001.3 999.1 0.0
25/05:00pm 40.2 38.2 8.6 15 18.6 SSW 9 17 5 9 1001.3 999.1 0.0
25/04:30pm 40.2 39.0 9.6 16 18.2 NE 6 13 3 7 1001.5 999.3 0.0
25/04:00pm 39.1 37.5 8.7 16 17.8 SSE 7 15 4 8 1002.0 999.8 0.0
25/03:30pm 40.4 37.5 9.7 16 18.3 SW 15 24 8 13 1002.2 1000.0 0.0
25/03:00pm 40.1 38.6 10.4 17 17.9 SSW 9 19 5 10 1002.8 1000.7 0.0
25/02:30pm 38.8 36.6 9.4 17 17.3 ESE 11 22 6 12 1003.2 1001.1 0.0
25/02:00pm 39.1 36.8 10.4 18 17.2 SE 13 22 7 12 1003.6 1001.5 0.0
25/01:30pm 39.0 37.1 10.4 18 17.1 NW 11 19 6 10 1004.0 1001.9 0.0
25/01:00pm 37.7 35.9 10.9 20 16.1 WNW 11 20 6 11 1004.4 1002.2 0.0
25/12:30pm 38.2 35.9 10.5 19 16.5 SE 13 28 7 15 1004.7 1002.5 0.0
25/12:00pm 38.1 35.3 11.2 20 16.3 WSW 17 28 9 15 1005.3 1003.1 0.0
25/11:30am 37.7 36.3 10.9 20 16.1 WSW 9 17 5 9 1005.9 1003.7 0.0
25/11:00am 36.5 34.2 10.6 21 15.4 WNW 13 19 7 10 1006.4 1004.3 0.0
25/10:30am 36.3 35.2 11.9 23 14.7 NNE 9 17 5 9 1006.8 1004.7 0.0
25/10:00am 35.1 33.5 11.5 24 14.1 NW 11 19 6 10 1006.9 1004.8 0.0
25/09:30am 33.5 31.5 11.4 26 13.1 N 13 20 7 11 1007.1 1005.0 0.0
25/09:00am 32.1 29.4 10.2 26 12.7 N 15 20 8 11 1007.3 1005.2 -
25/08:30am 31.1 29.3 12.0 31 11.3 NNE 13 17 7 9 1007.5 1005.4 -
25/08:00am 30.0 26.7 11.0 31 11.1 NNE 19 24 10 13 1007.5 1005.4 -
25/07:30am 29.5 26.6 11.1 32 10.7 NE 17 22 9 12 1007.2 1005.1 -
25/07:00am 28.8 26.4 11.4 34 10.1 NE 15 17 8 9 1006.9 1004.8 -
25/06:30am 28.0 26.5 10.7 34 9.9 NNE 9 13 5 7 1006.5 1004.4 -
25/06:00am 28.6 27.0 10.3 32 10.5 NE 9 11 5 6 1006.2 1004.1 -
25/05:30am 29.1 27.5 10.3 31 10.8 N 9 9 5 5 1006.0 1003.8 -
25/05:00am 29.5 28.2 10.1 30 11.1 N 7 11 4 6 1005.8 1003.6 -
25/04:30am 29.6 28.0 10.2 30 11.1 NNE 9 11 5 6 1005.8 1003.6 -
25/04:00am 30.3 28.0 10.3 29 11.5 NE 13 19 7 10 1005.9 1003.7 -
25/03:30am 30.7 28.8 10.6 29 11.6 NNE 11 13 6 7 1005.9 1003.7 -
25/03:00am 31.1 29.1 11.5 30 11.6 NNE 13 17 7 9 1005.9 1003.7 0.0
25/02:30am 31.6 29.7 11.9 30 11.7 NNE 13 19 7 10 1006.2 1004.1 -
25/02:00am 32.2 28.6 12.9 31 11.7 NE 24 33 13 18 1006.1 1004.0 -
25/01:30am 32.0 30.0 12.8 31 11.6 NE 15 20 8 11 1006.3 1004.2 -
25/01:00am 31.5 29.7 13.3 33 11.1 NE 15 20 8 11 1006.4 1004.3 -
25/12:30am 31.8 27.6 13.5 32 11.1 ENE 28 39 15 21 1006.5 1004.4 -
25/12:23am 32.1 28.2 13.3 31 11.4 E 26 39 14 21 1006.4 1004.3 -
25/12:00am 32.5 31.4 13.2 31 11.7 NNE 11 13 6 7 1006.6 1004.5 -

Other formats

Comma delimited format used in spreadsheet applications
http://www.bom.gov.au/fwo/IDQ60801/IDQ60801.94338.axf

JavaScript Object Notation format (JSON) in row-major order
http://www.bom.gov.au/fwo/IDQ60801/IDQ60801.94338.json

Data quality

Most of these data are generated automatically and are frequently updated. Quality checks on data are not normally performed. It is possible for incorrect values to appear. Refer to information at About Latest Weather Observations and please check the disclaimer before using these data.